Aérodrome :
LOGIN :

S'inscrire | Disclaimer

   EN    FR    IT 

 










Légende :    VFR   VFR Marginal   IFR   IFR Intensif   IFR Très Intensif
Visi : 
Plafond : 
>= 8 km
>= 3000ft
5 à 8 km
1000 à 3000 ft
1500m à 5 km
500 à 1000 ft
800 à 1500m
200 à 500 ft
< 800m
< 200 ft
Symboles :   Orages  Brouillard  Fortes neiges  Fortes précipitations  Vent > 20 kt
SIGMETs :   Divers  Orages  Givrage  Turbulence  Onde Orograph.  Cendres Volcan.







- Altitude de l'aérodrome : 499 ft
- Code IATA : TLS
- Voir les cartes d'approche


LFBO - Toulouse / Blagnac

DERNIER METAR :
  • 221600Z AUTO 14014KT CAVOK 14/08 Q1012 TEMPO 14018G28KT

METARs EXPIRÉS :
  • 221530Z AUTO 14017KT 9999 FEW008 15/08 Q1012 TEMPO 14018G28KT
  • 221500Z AUTO 15014KT CAVOK 16/08 Q1012 TEMPO 14018G28KT
  • 221430Z AUTO 13014KT 100V160 CAVOK 16/08 Q1012 TEMPO 14018G28KT
  • 221400Z AUTO 15014KT CAVOK 16/08 Q1012 TEMPO 14018G28KT
  • 221330Z AUTO 14013KT 110V170 CAVOK 16/09 Q1012 TEMPO 14018G28KT

TAF TAF LFBO
Valide du 22 à 12h jusqu'au 23 à 18h UTC


221100Z 2212/2318 14014KT CAVOK
PROB40
TEMPO 2212/2306 14018G28KT
PROB30
TEMPO 2218/2307 BKN010
ATIS : +33 5 62 74 66 36
Pas de NOTAMs connus pour ce terrain.



MET'MAP, la Météo Aéronautique d'un coup d'oeil ! - Copyright ORBIFLY Décembre 2007 - Disclaimer

ORBIFLY MET'MAP TEAM :

Programmation & Développement : Alexandra Zaïnal
Conception & Développement : Baudouin d'Aumeries
Co-Programmation & Développement : Marc-Olivier Méhu
Soutien technique & logistique : Manuel Goepfert

Contact : metmap@orbifly.com




SOURCES & CREDITS :

   NOAA